createdAt,value
2018-05-14T00:01:53.252Z,100.00
2018-05-14T00:04:20.844Z,100.00
2018-05-14T00:06:48.439Z,100.00
2018-05-14T00:09:16.075Z,100.00
2018-05-14T00:11:43.702Z,100.00
2018-05-14T00:14:11.309Z,100.00
2018-05-14T00:16:38.943Z,100.00
2018-05-14T00:19:06.568Z,100.00
2018-05-14T00:21:34.146Z,100.00
2018-05-14T00:24:01.980Z,100.00
2018-05-14T00:26:29.572Z,100.00
2018-05-14T00:28:57.158Z,100.00
2018-05-14T00:31:24.791Z,100.00
2018-05-14T00:33:52.380Z,100.00
2018-05-14T00:36:19.986Z,100.00
2018-05-14T00:38:47.660Z,100.00
2018-05-14T00:41:15.243Z,100.00
2018-05-14T00:43:42.835Z,100.00
2018-05-14T00:46:10.459Z,100.00
2018-05-14T00:48:38.051Z,100.00
2018-05-14T00:51:05.643Z,100.00
2018-05-14T00:53:33.392Z,100.00
2018-05-14T00:56:00.969Z,100.00
2018-05-14T00:58:28.553Z,100.00
2018-05-14T01:00:56.180Z,100.00
2018-05-14T01:03:23.759Z,100.00
2018-05-14T01:05:51.344Z,100.00
2018-05-14T01:08:18.958Z,100.00
2018-05-14T01:10:46.650Z,100.00
2018-05-14T01:13:14.272Z,100.00
2018-05-14T01:15:41.876Z,100.00
2018-05-14T01:18:09.468Z,100.00
2018-05-14T01:20:37.062Z,100.00
2018-05-14T01:23:04.764Z,100.00
2018-05-14T01:25:32.415Z,100.00
2018-05-14T01:28:00.095Z,100.00
2018-05-14T01:30:27.656Z,100.00
2018-05-14T01:32:55.231Z,100.00
2018-05-14T01:35:22.820Z,100.00
2018-05-14T01:37:50.505Z,100.00
2018-05-14T01:40:18.099Z,100.00
2018-05-14T01:42:45.678Z,100.00
2018-05-14T01:45:13.296Z,100.00
2018-05-14T01:47:40.888Z,100.00
2018-05-14T01:50:08.571Z,100.00
2018-05-14T01:52:36.169Z,100.00
2018-05-14T01:55:03.748Z,100.00
2018-05-14T01:57:31.390Z,100.00
2018-05-14T01:59:59.032Z,100.00
2018-05-14T02:02:26.618Z,100.00
2018-05-14T02:04:54.243Z,100.00
2018-05-14T02:07:21.832Z,100.00
2018-05-14T02:09:49.419Z,100.00
2018-05-14T02:12:17.034Z,100.00
2018-05-14T02:14:44.624Z,100.00
2018-05-14T02:17:12.217Z,100.00
2018-05-14T02:19:39.871Z,100.00
2018-05-14T02:22:07.454Z,100.00
2018-05-14T02:24:35.046Z,100.00
2018-05-14T02:27:02.713Z,100.00
2018-05-14T02:29:30.307Z,100.00
2018-05-14T02:31:57.887Z,100.00
2018-05-14T02:34:25.522Z,100.00
2018-05-14T02:36:53.175Z,100.00
2018-05-14T02:39:20.760Z,100.00
2018-05-14T02:41:48.662Z,100.00
2018-05-14T02:44:16.262Z,100.00
2018-05-14T02:46:43.865Z,100.00
2018-05-14T02:49:11.515Z,100.00
2018-05-14T02:51:39.099Z,100.00
2018-05-14T02:54:06.674Z,100.00
2018-05-14T02:56:34.294Z,100.00
2018-05-14T02:59:01.882Z,100.00
2018-05-14T03:01:29.475Z,100.00
2018-05-14T03:03:57.097Z,100.00
2018-05-14T03:06:24.682Z,100.00
2018-05-14T03:08:52.277Z,100.00
2018-05-14T03:11:19.909Z,100.00
2018-05-14T03:13:47.520Z,100.00
2018-05-14T03:16:15.127Z,100.00
2018-05-14T03:18:42.792Z,100.00
2018-05-14T03:21:10.381Z,100.00
2018-05-14T03:23:37.964Z,100.00
2018-05-14T03:26:05.584Z,100.00
2018-05-14T03:28:33.171Z,100.00
2018-05-14T03:31:00.769Z,100.00
2018-05-14T03:33:28.425Z,100.00
2018-05-14T03:35:56.029Z,100.00
2018-05-14T03:38:23.618Z,100.00
2018-05-14T03:40:51.236Z,98.85
2018-05-14T03:43:18.816Z,97.96
2018-05-14T03:45:46.415Z,96.61
2018-05-14T03:48:14.079Z,96.05
2018-05-14T03:50:41.668Z,95.38
2018-05-14T03:53:09.251Z,94.88
2018-05-14T03:55:36.879Z,94.87
2018-05-14T03:58:04.500Z,90.12
2018-05-14T04:00:43.910Z,85.44
2018-05-14T04:03:23.164Z,84.88
2018-05-14T04:06:02.416Z,84.64
2018-05-14T04:08:30.006Z,83.80
2018-05-14T04:10:57.596Z,82.79
2018-05-14T04:13:25.207Z,82.78
2018-05-14T04:15:52.808Z,83.57
2018-05-14T04:18:20.421Z,83.64
2018-05-14T04:20:48.049Z,79.01
2018-05-14T04:23:15.760Z,78.13
2018-05-14T04:25:43.343Z,79.62
2018-05-14T04:28:11.063Z,81.74
2018-05-14T04:30:38.732Z,83.98
2018-05-14T04:33:06.318Z,85.31
2018-05-14T04:35:34.067Z,85.95
2018-05-14T04:38:01.660Z,86.17
2018-05-14T04:40:29.247Z,84.90
2018-05-14T04:42:56.936Z,84.02
2018-05-14T04:45:24.704Z,83.06
2018-05-14T04:47:52.291Z,82.44
2018-05-14T04:50:19.906Z,81.88
2018-05-14T04:52:47.493Z,82.50
2018-05-14T04:55:15.224Z,83.46
2018-05-14T04:57:43.014Z,84.40
2018-05-14T05:00:10.637Z,85.15
2018-05-14T05:02:38.338Z,85.48
2018-05-14T05:05:05.959Z,85.91
2018-05-14T05:07:33.544Z,87.98
2018-05-14T05:10:01.327Z,87.14
2018-05-14T05:12:28.947Z,86.73
2018-05-14T05:14:56.868Z,87.53
2018-05-14T05:17:24.455Z,87.37
2018-05-14T05:19:52.176Z,87.16
2018-05-14T05:22:19.851Z,86.91
2018-05-14T05:24:47.516Z,85.96
2018-05-14T05:27:15.382Z,85.17
2018-05-14T05:29:43.045Z,84.11
2018-05-14T05:32:10.623Z,83.14
2018-05-14T05:34:38.232Z,82.69
2018-05-14T05:37:05.807Z,79.78
2018-05-14T05:39:33.479Z,78.75
2018-05-14T05:42:01.108Z,77.73
2018-05-14T05:44:28.680Z,75.18
2018-05-14T05:46:56.478Z,73.63
2018-05-14T05:49:24.324Z,73.14
2018-05-14T05:51:52.001Z,73.11
2018-05-14T05:54:19.591Z,73.94
2018-05-14T05:56:47.210Z,74.98
2018-05-14T05:59:14.961Z,75.12
2018-05-14T06:01:42.533Z,71.06
2018-05-14T06:04:10.305Z,64.89
2018-05-14T06:06:37.896Z,62.48
2018-05-14T06:09:06.460Z,62.46
2018-05-14T06:11:34.318Z,63.30
2018-05-14T06:14:01.897Z,58.00
2018-05-14T06:16:29.646Z,54.38
2018-05-14T06:18:57.252Z,50.72
2018-05-14T06:21:24.977Z,49.62
2018-05-14T06:23:52.570Z,50.57
2018-05-14T06:26:20.282Z,54.06
2018-05-14T06:28:47.859Z,53.62
2018-05-14T06:31:15.627Z,55.45
2018-05-14T06:33:43.226Z,57.67
2018-05-14T06:36:10.954Z,58.39
2018-05-14T06:38:38.609Z,58.99
2018-05-14T06:41:06.285Z,58.72
2018-05-14T06:43:33.840Z,60.83
2018-05-14T06:46:01.420Z,58.64
2018-05-14T06:48:29.255Z,58.67
2018-05-14T06:50:56.849Z,59.79
2018-05-14T06:53:24.571Z,59.23
2018-05-14T06:55:52.187Z,58.88
2018-05-14T06:58:20.025Z,60.69
2018-05-14T07:00:47.868Z,58.03
2018-05-14T07:03:19.140Z,57.57
2018-05-14T07:05:46.774Z,57.26
2018-05-14T07:08:14.440Z,57.46
2018-05-14T07:10:42.046Z,57.62
2018-05-14T07:13:09.625Z,58.47
2018-05-14T07:15:37.207Z,58.41
2018-05-14T07:18:04.886Z,58.19
2018-05-14T07:20:32.458Z,59.02
2018-05-14T07:23:00.036Z,58.93
2018-05-14T07:25:27.657Z,60.14
2018-05-14T07:27:55.328Z,59.70
2018-05-14T07:30:22.911Z,60.79
2018-05-14T07:32:50.520Z,61.81
2018-05-14T07:35:18.945Z,61.22
2018-05-14T07:37:46.604Z,61.23
2018-05-14T07:40:14.229Z,60.49
2018-05-14T07:42:42.143Z,60.72
2018-05-14T07:45:09.743Z,59.07
2018-05-14T07:47:37.482Z,60.80
2018-05-14T07:50:05.043Z,59.55
2018-05-14T07:52:32.926Z,58.76
2018-05-14T07:55:00.719Z,57.74
2018-05-14T07:57:28.311Z,54.89
2018-05-14T07:59:55.868Z,56.36
2018-05-14T08:02:23.468Z,52.41
2018-05-14T08:04:51.051Z,53.23
2018-05-14T08:07:18.744Z,54.93
2018-05-14T08:09:46.408Z,53.42
2018-05-14T08:12:14.081Z,51.51
2018-05-14T08:14:41.656Z,54.17
2018-05-14T08:17:09.409Z,51.83
2018-05-14T08:19:36.991Z,51.09
2018-05-14T08:22:04.576Z,49.54
2018-05-14T08:24:32.208Z,49.06
2018-05-14T08:26:59.775Z,48.96
2018-05-14T08:29:27.355Z,49.08
2018-05-14T08:31:55.165Z,49.97
2018-05-14T08:34:22.735Z,48.95
2018-05-14T08:36:50.489Z,49.24
2018-05-14T08:39:18.312Z,50.82
2018-05-14T08:41:45.823Z,50.63
2018-05-14T08:44:13.401Z,49.96
2018-05-14T08:46:41.147Z,52.55
2018-05-14T08:49:08.810Z,52.61
2018-05-14T08:51:36.391Z,53.10
2018-05-14T08:54:04.120Z,53.51
2018-05-14T08:56:31.790Z,52.08
2018-05-14T08:58:59.459Z,51.31
2018-05-14T09:01:27.122Z,51.00
2018-05-14T09:03:54.708Z,51.60
2018-05-14T09:06:22.444Z,51.91
2018-05-14T09:08:50.081Z,51.62
2018-05-14T09:11:17.754Z,52.13
2018-05-14T09:13:45.326Z,53.44
2018-05-14T09:16:13.093Z,53.81
2018-05-14T09:18:40.922Z,54.41
2018-05-14T09:21:08.500Z,55.49
2018-05-14T09:23:36.197Z,55.31
2018-05-14T09:26:03.780Z,57.47
2018-05-14T09:28:31.464Z,57.38
2018-05-14T09:30:59.155Z,57.15
2018-05-14T09:33:26.731Z,58.05
2018-05-14T09:35:54.590Z,57.80
2018-05-14T09:38:22.261Z,57.92
2018-05-14T09:40:49.911Z,57.63
2018-05-14T09:43:17.571Z,58.86
2018-05-14T09:45:45.188Z,59.52
2018-05-14T09:48:12.909Z,60.89
2018-05-14T09:50:40.674Z,64.00
2018-05-14T09:53:08.300Z,64.91
2018-05-14T09:55:36.082Z,65.77
2018-05-14T09:58:03.761Z,62.41
2018-05-14T10:00:31.392Z,64.20
2018-05-14T10:02:59.077Z,62.52
2018-05-14T10:05:26.738Z,63.57
2018-05-14T10:07:54.370Z,65.12
2018-05-14T10:10:21.953Z,68.26
2018-05-14T10:12:49.544Z,65.96
2018-05-14T10:15:17.393Z,64.44
2018-05-14T10:17:45.462Z,64.65
2018-05-14T10:20:13.047Z,61.18
2018-05-14T10:22:40.785Z,62.89
2018-05-14T10:25:08.371Z,61.14
2018-05-14T10:27:36.118Z,62.82
2018-05-14T10:30:03.774Z,63.26
2018-05-14T10:32:31.434Z,63.48
2018-05-14T10:34:59.008Z,63.90
2018-05-14T10:37:26.625Z,63.62
2018-05-14T10:39:54.200Z,65.24
2018-05-14T10:42:21.877Z,66.76
2018-05-14T10:44:49.486Z,68.39
2018-05-14T10:47:17.339Z,73.01
2018-05-14T10:49:44.951Z,71.75
2018-05-14T10:52:12.778Z,69.00
2018-05-14T10:54:40.361Z,68.11
2018-05-14T10:57:08.164Z,66.59
2018-05-14T10:59:35.773Z,65.75
2018-05-14T11:02:03.352Z,69.82
2018-05-14T11:04:31.036Z,69.74
2018-05-14T11:06:58.705Z,66.55
2018-05-14T11:09:26.290Z,62.72
2018-05-14T11:11:53.861Z,61.87
2018-05-14T11:14:21.680Z,59.37
2018-05-14T11:16:49.349Z,54.60
2018-05-14T11:19:16.927Z,49.59
2018-05-14T11:21:44.671Z,51.65
2018-05-14T11:24:12.256Z,50.82
2018-05-14T11:26:39.831Z,45.81
2018-05-14T11:29:07.471Z,38.21
2018-05-14T11:31:35.117Z,34.56
2018-05-14T11:34:02.795Z,34.30
2018-05-14T11:36:30.408Z,32.61
2018-05-14T11:38:58.106Z,31.98
2018-05-14T11:41:25.777Z,31.83
2018-05-14T11:43:53.431Z,32.34
2018-05-14T11:46:21.098Z,32.93
2018-05-14T11:48:48.660Z,33.86
2018-05-14T11:51:16.410Z,33.33
2018-05-14T11:53:43.995Z,31.90
2018-05-14T11:56:11.747Z,29.95
2018-05-14T11:58:39.350Z,30.82
2018-05-14T12:01:07.060Z,31.31
2018-05-14T12:03:34.646Z,33.04
2018-05-14T12:06:02.294Z,30.30
2018-05-14T12:08:30.081Z,31.25
2018-05-14T12:10:57.658Z,30.47
2018-05-14T12:13:25.269Z,32.12
2018-05-14T12:15:53.026Z,33.67
2018-05-14T12:18:20.697Z,34.19
2018-05-14T12:20:48.361Z,37.52
2018-05-14T12:23:16.025Z,35.92
2018-05-14T12:25:43.616Z,34.38
2018-05-14T12:28:11.353Z,35.64
2018-05-14T12:30:38.949Z,33.79
2018-05-14T12:33:06.587Z,34.07
2018-05-14T12:35:34.191Z,31.90
2018-05-14T12:38:01.808Z,32.17
2018-05-14T12:40:29.469Z,35.66
2018-05-14T12:42:57.081Z,37.97
2018-05-14T12:45:24.785Z,38.21
2018-05-14T12:47:52.458Z,39.73
2018-05-14T12:50:20.066Z,41.47
2018-05-14T12:52:47.634Z,44.43
2018-05-14T12:55:15.206Z,45.33
2018-05-14T12:57:42.824Z,44.29
2018-05-14T13:00:10.406Z,44.22
2018-05-14T13:02:37.979Z,43.98
2018-05-14T13:05:05.678Z,43.07
2018-05-14T13:07:33.348Z,43.69
2018-05-14T13:10:01.008Z,43.11
2018-05-14T13:12:28.635Z,44.02
2018-05-14T13:14:56.224Z,43.65
2018-05-14T13:17:23.989Z,42.58
2018-05-14T13:19:51.661Z,42.26
2018-05-14T13:22:19.333Z,43.00
2018-05-14T13:24:46.923Z,41.66
2018-05-14T13:27:14.648Z,41.09
2018-05-14T13:29:42.296Z,41.91
2018-05-14T13:32:09.980Z,41.73
2018-05-14T13:34:37.624Z,43.40
2018-05-14T13:37:05.275Z,43.90
2018-05-14T13:39:32.941Z,42.97
2018-05-14T13:42:00.561Z,43.72
2018-05-14T13:44:28.511Z,42.92
2018-05-14T13:46:56.104Z,43.88
2018-05-14T13:49:23.716Z,45.70
2018-05-14T13:51:51.661Z,47.79
2018-05-14T13:54:19.247Z,47.48
2018-05-14T13:56:46.874Z,47.76
2018-05-14T13:59:14.460Z,47.39
2018-05-14T14:01:42.039Z,47.03
2018-05-14T14:04:09.661Z,48.47
2018-05-14T14:06:37.249Z,48.90
2018-05-14T14:09:04.889Z,48.62
2018-05-14T14:11:32.505Z,49.58
2018-05-14T14:14:00.148Z,50.16
2018-05-14T14:16:27.723Z,49.91
2018-05-14T14:18:55.335Z,49.45
2018-05-14T14:21:22.912Z,49.59
2018-05-14T14:23:50.704Z,49.15
2018-05-14T14:26:18.136Z,49.24
2018-05-14T14:28:45.694Z,49.89
2018-05-14T14:31:13.288Z,50.12
2018-05-14T14:33:40.894Z,50.27
2018-05-14T14:36:08.524Z,51.15
2018-05-14T14:38:36.104Z,50.89
2018-05-14T14:41:03.727Z,50.82
2018-05-14T14:43:31.324Z,51.85
2018-05-14T14:45:58.895Z,51.44
2018-05-14T14:48:26.509Z,51.67
2018-05-14T14:50:54.120Z,51.66
2018-05-14T14:53:21.839Z,52.46
2018-05-14T14:55:49.620Z,53.17
2018-05-14T14:58:17.271Z,53.28
2018-05-14T15:00:44.829Z,53.18
2018-05-14T15:03:12.393Z,53.75
2018-05-14T15:05:40.011Z,53.93
2018-05-14T15:08:07.593Z,53.58
2018-05-14T15:10:35.254Z,53.55
2018-05-14T15:13:02.873Z,54.20
2018-05-14T15:15:30.537Z,54.19
2018-05-14T15:17:58.136Z,54.43
2018-05-14T15:20:25.778Z,54.16
2018-05-14T15:22:53.346Z,53.89
2018-05-14T15:25:20.930Z,54.38
2018-05-14T15:27:48.560Z,54.46
2018-05-14T15:30:16.161Z,54.62
2018-05-14T15:32:43.739Z,54.95
2018-05-14T15:35:11.351Z,54.67
2018-05-14T15:37:38.923Z,54.15
2018-05-14T15:40:06.500Z,54.89
2018-05-14T15:42:34.112Z,55.72
2018-05-14T15:45:01.693Z,56.20
2018-05-14T15:47:29.258Z,55.80
2018-05-14T15:49:56.939Z,56.33
2018-05-14T15:52:24.484Z,56.12
2018-05-14T15:54:52.062Z,56.57
2018-05-14T15:57:19.726Z,56.09
2018-05-14T15:59:47.308Z,56.81
2018-05-14T16:02:14.898Z,57.68
2018-05-14T16:04:42.532Z,58.05
2018-05-14T16:07:10.159Z,59.24
2018-05-14T16:09:37.734Z,59.36
2018-05-14T16:12:05.340Z,59.60
2018-05-14T16:14:32.952Z,59.93
2018-05-14T16:17:00.594Z,59.75
2018-05-14T16:19:28.213Z,60.02
2018-05-14T16:21:55.799Z,60.79
2018-05-14T16:24:23.429Z,61.11
2018-05-14T16:26:51.225Z,61.88
2018-05-14T16:29:18.804Z,62.25
2018-05-14T16:31:46.378Z,62.33
2018-05-14T16:34:14.167Z,62.55
2018-05-14T16:36:41.722Z,62.58
2018-05-14T16:39:09.299Z,63.03
2018-05-14T16:41:36.909Z,63.02
2018-05-14T16:44:04.498Z,63.26
2018-05-14T16:46:32.080Z,63.44
2018-05-14T16:48:59.727Z,64.12
2018-05-14T16:51:27.304Z,64.13
2018-05-14T16:53:54.882Z,64.58
2018-05-14T16:56:22.675Z,64.43
2018-05-14T16:58:50.408Z,64.85
2018-05-14T17:01:17.980Z,65.31
2018-05-14T17:03:45.731Z,65.93
2018-05-14T17:06:13.269Z,65.92
2018-05-14T17:08:40.845Z,66.19
2018-05-14T17:11:08.646Z,66.42
2018-05-14T17:13:36.211Z,66.29
2018-05-14T17:16:03.775Z,66.89
2018-05-14T17:18:31.365Z,65.54
2018-05-14T17:20:58.935Z,64.93
2018-05-14T17:23:26.545Z,64.95
2018-05-14T17:25:54.211Z,64.80
2018-05-14T17:28:21.790Z,65.73
2018-05-14T17:30:49.561Z,67.10
2018-05-14T17:33:17.396Z,68.66
2018-05-14T17:35:45.131Z,69.30
2018-05-14T17:38:12.928Z,69.88
2018-05-14T17:40:40.631Z,70.01
2018-05-14T17:43:08.696Z,70.89
2018-05-14T17:45:36.492Z,70.60
2018-05-14T17:48:04.167Z,69.77
2018-05-14T17:50:31.759Z,70.58
2018-05-14T17:52:59.420Z,71.76
2018-05-14T17:55:27.387Z,72.42
2018-05-14T17:57:55.041Z,74.17
2018-05-14T18:00:22.712Z,74.54
2018-05-14T18:02:50.354Z,75.48
2018-05-14T18:05:18.060Z,75.33
2018-05-14T18:07:45.636Z,74.60
2018-05-14T18:10:13.266Z,74.41
2018-05-14T18:12:40.858Z,75.16
2018-05-14T18:15:08.438Z,75.13
2018-05-14T18:17:36.564Z,75.40
2018-05-14T18:20:09.541Z,77.89
2018-05-14T18:22:40.277Z,75.49
2018-05-14T18:25:13.666Z,75.27
2018-05-14T18:27:46.854Z,76.13
2018-05-14T18:30:14.445Z,77.77
2018-05-14T18:35:54.555Z,75.75
2018-05-14T18:38:22.367Z,74.53
2018-05-14T18:40:50.008Z,77.36
2018-05-14T18:43:17.587Z,77.47
2018-05-14T18:45:45.403Z,77.94
2018-05-14T18:48:12.987Z,78.29
2018-05-14T18:50:40.654Z,81.49
2018-05-14T18:53:08.261Z,78.64
2018-05-14T18:55:35.980Z,81.77
2018-05-14T18:58:03.648Z,82.00
2018-05-14T19:00:31.319Z,81.35
2018-05-14T19:02:58.899Z,83.79
2018-05-14T19:05:26.632Z,81.52
2018-05-14T19:07:54.313Z,85.23
2018-05-14T19:10:27.500Z,76.53
2018-05-14T19:12:55.162Z,79.17
2018-05-14T19:15:28.210Z,76.75
2018-05-14T19:18:00.713Z,71.43
2018-05-14T19:20:28.300Z,70.05
2018-05-14T19:23:01.580Z,70.50
2018-05-14T19:25:29.188Z,69.31
2018-05-14T19:28:02.437Z,68.43
2018-05-14T19:30:30.101Z,67.84
2018-05-14T19:32:57.703Z,68.49
2018-05-14T19:35:31.332Z,68.99
2018-05-14T19:37:59.231Z,67.40
2018-05-14T19:40:32.572Z,67.45
2018-05-14T19:43:00.190Z,69.91
2018-05-14T19:45:27.942Z,68.27
2018-05-14T19:47:55.545Z,66.60
2018-05-14T19:50:23.205Z,68.16
2018-05-14T19:52:50.743Z,66.58
2018-05-14T19:55:18.664Z,66.76
2018-05-14T19:57:46.261Z,66.20
2018-05-14T20:00:13.908Z,65.93
2018-05-14T20:02:41.505Z,68.25
2018-05-14T20:05:09.072Z,69.30
2018-05-14T20:07:36.707Z,72.67
2018-05-14T20:10:04.332Z,73.21
2018-05-14T20:12:32.119Z,73.28
2018-05-14T20:14:59.982Z,72.71
2018-05-14T20:17:27.648Z,72.40
2018-05-14T20:19:55.267Z,71.07
2018-05-14T20:22:23.110Z,74.69
2018-05-14T20:24:50.855Z,74.64
2018-05-14T20:27:18.596Z,77.49
2018-05-14T20:29:46.583Z,76.29
2018-05-14T20:32:14.251Z,79.64
2018-05-14T20:34:41.841Z,78.45
2018-05-14T20:37:09.603Z,79.86
2018-05-14T20:39:37.232Z,79.90
2018-05-14T20:42:04.900Z,80.06
2018-05-14T20:44:32.487Z,80.69
2018-05-14T20:47:00.108Z,80.98
2018-05-14T20:49:27.687Z,81.71
2018-05-14T20:51:55.529Z,81.82
2018-05-14T20:54:23.162Z,82.98
2018-05-14T20:56:50.852Z,83.01
2018-05-14T20:59:18.741Z,84.02
2018-05-14T21:01:46.356Z,84.13
2018-05-14T21:04:14.052Z,84.25
2018-05-14T21:06:41.707Z,85.40
2018-05-14T21:09:09.334Z,86.26
2018-05-14T21:11:36.947Z,86.96
2018-05-14T21:14:04.584Z,87.86
2018-05-14T21:16:32.377Z,88.43
2018-05-14T21:18:59.971Z,87.82
2018-05-14T21:21:27.554Z,88.86
2018-05-14T21:23:55.192Z,89.18
2018-05-14T21:26:22.775Z,86.39
2018-05-14T21:28:50.484Z,86.71
2018-05-14T21:31:18.203Z,87.98
2018-05-14T21:33:45.786Z,89.67
2018-05-14T21:36:13.362Z,87.61
2018-05-14T21:38:40.980Z,87.68
2018-05-14T21:41:08.562Z,88.51
2018-05-14T21:43:36.144Z,89.28
2018-05-14T21:46:03.761Z,89.09
2018-05-14T21:48:31.344Z,89.72
2018-05-14T21:50:58.911Z,90.50
2018-05-14T21:53:26.545Z,91.37
2018-05-14T21:55:54.208Z,92.45
2018-05-14T21:58:21.788Z,92.38
2018-05-14T22:00:49.400Z,92.75
2018-05-14T22:03:16.985Z,93.43
2018-05-14T22:05:50.740Z,93.74
2018-05-14T22:08:18.414Z,94.27
2018-05-14T22:10:46.014Z,94.10
2018-05-14T22:13:13.642Z,94.07
2018-05-14T22:15:41.367Z,93.57
2018-05-14T22:18:08.973Z,93.45
2018-05-14T22:20:36.620Z,92.01
2018-05-14T22:23:04.359Z,90.55
2018-05-14T22:25:31.959Z,90.43
2018-05-14T22:27:59.612Z,90.02
2018-05-14T22:30:27.191Z,90.64
2018-05-14T22:32:54.778Z,90.10
2018-05-14T22:35:22.383Z,90.21
2018-05-14T22:37:49.973Z,90.28
2018-05-14T22:40:17.552Z,90.83
2018-05-14T22:42:45.180Z,91.13
2018-05-14T22:45:12.780Z,91.27
2018-05-14T22:47:40.409Z,91.38
2018-05-14T22:50:08.073Z,90.81
2018-05-14T22:52:35.666Z,91.97
2018-05-14T22:55:03.254Z,92.05
2018-05-14T22:57:30.888Z,92.04
2018-05-14T22:59:58.560Z,92.44
2018-05-14T23:02:26.563Z,92.52
2018-05-14T23:04:54.177Z,92.23
2018-05-14T23:07:21.849Z,92.46
2018-05-14T23:09:49.521Z,92.31
2018-05-14T23:12:17.371Z,92.17
2018-05-14T23:14:45.214Z,92.38
2018-05-14T23:17:13.163Z,91.83
2018-05-14T23:19:41.234Z,91.75
2018-05-14T23:22:09.307Z,91.52
2018-05-14T23:24:37.175Z,91.05
2018-05-14T23:27:05.245Z,91.43
2018-05-14T23:29:33.318Z,91.44
2018-05-14T23:32:01.209Z,91.23
2018-05-14T23:34:29.284Z,91.21
2018-05-14T23:36:57.245Z,91.57
2018-05-14T23:39:24.992Z,91.09
2018-05-14T23:41:53.063Z,91.00
2018-05-14T23:44:21.135Z,90.56
2018-05-14T23:46:49.181Z,90.86
2018-05-14T23:49:17.271Z,91.17
2018-05-14T23:51:45.146Z,91.84
2018-05-14T23:54:13.216Z,92.04
2018-05-14T23:56:41.275Z,92.52
2018-05-14T23:59:09.155Z,92.52
